Thunder radar more information blitzortung!


Radar de pluja more information rain snow radar


Visita la nostra xarxa de llocs de meteo:

Template documentation
and downloads

And another site



No particular awareness of the weather is required.    There are no Weather-warnings

Pagina Historial Weather Underground text

Diari Resum Agost 7, 2017 Unitats:  Mètric    Imperial   Tant
« Previous Dia
SegĂźent Dia »
Diari Setmana Mensual Anual Personalitzada
  Maxima: Minima: Media:
Temperatura: 32.2 °C 21.8 °C 28.3 °C
Punt de rosada: 21.0 °C 15.2 °C 18.8 °C
Humitat: 80 % 38 % 57 %
Wind Speed: 16.1 km/h 0.0 km/h 3.4 km/h
RĂ fegues de vent: 20.9 km/h - -
Vent:- - South
Pression baro: 1015.8 hPa 1007.0 hPa -
Precipitacions: 0.0 mm    
Historical Graphs
 
 
Dades de taula per Agost 7, 2017
Temps Temperatura Punt de rosada Pression baro Vent Wind Speed RĂ fegues de vent Humitat Rainfall Rate (Hourly)
00:03 23.7 °C 18.6 °C 1015.8 hPa WSW 3.7 km/h 3.7 km/h 73 % 0.0 mm
00:05 22.2 °C 18.2 °C 1014.8 hPa SW 1.6 km/h 1.6 km/h 78 % 0.0 mm
00:08 23.7 °C 18.6 °C 1015.8 hPa SW 3.7 km/h 3.7 km/h 73 % 0.0 mm
00:25 22.1 °C 18.1 °C 1014.8 hPa SW 3.2 km/h 3.2 km/h 78 % 0.0 mm
00:35 22.0 °C 18.0 °C 1014.8 hPa SW 1.6 km/h 3.2 km/h 78 % 0.0 mm
00:45 22.0 °C 18.2 °C 1014.8 hPa SW 1.6 km/h 3.2 km/h 79 % 0.0 mm
00:55 22.0 °C 18.2 °C 1014.8 hPa Calm     79 % 0.0 mm
01:05 21.9 °C 18.1 °C 1014.8 hPa Calm     79 % 0.0 mm
01:15 21.9 °C 18.1 °C 1014.8 hPa Calm     79 % 0.0 mm
01:25 21.9 °C 18.1 °C 1014.8 hPa Calm     79 % 0.0 mm
01:35 21.8 °C 18.0 °C 1014.8 hPa Calm     79 % 0.0 mm
01:45 21.8 °C 18.2 °C 1014.8 hPa Calm     80 % 0.0 mm
01:55 21.8 °C 18.2 °C 1014.8 hPa Calm   1.6 km/h 80 % 0.0 mm
02:05 21.8 °C 18.2 °C 1014.8 hPa Calm   1.6 km/h 80 % 0.0 mm
02:15 21.9 °C 18.3 °C 1014.8 hPa Calm   1.6 km/h 80 % 0.0 mm
02:25 22.0 °C 18.4 °C 1014.8 hPa Calm     80 % 0.0 mm
02:35 22.0 °C 18.4 °C 1013.8 hPa Calm     80 % 0.0 mm
02:45 22.2 °C 18.4 °C 1013.8 hPa East 1.6 km/h 3.2 km/h 79 % 0.0 mm
02:55 22.4 °C 18.6 °C 1013.8 hPa Calm   1.6 km/h 79 % 0.0 mm
03:05 22.6 °C 18.6 °C 1013.8 hPa SW 3.2 km/h 3.2 km/h 78 % 0.0 mm
03:15 22.6 °C 18.6 °C 1013.8 hPa SW 3.2 km/h 3.2 km/h 78 % 0.0 mm
03:25 23.0 °C 18.9 °C 1014.8 hPa Calm   3.2 km/h 78 % 0.0 mm
03:35 23.8 °C 19.3 °C 1014.8 hPa SSW 3.2 km/h 3.2 km/h 76 % 0.0 mm
03:45 24.2 °C 19.5 °C 1014.8 hPa Calm   1.6 km/h 75 % 0.0 mm
03:55 24.4 °C 19.7 °C 1014.8 hPa South 1.6 km/h 4.8 km/h 75 % 0.0 mm
04:05 24.8 °C 19.8 °C 1013.8 hPa South 1.6 km/h 4.8 km/h 74 % 0.0 mm
04:15 25.3 °C 19.9 °C 1013.8 hPa Calm   3.2 km/h 72 % 0.0 mm
09:15 30.7 °C 19.1 °C 1012.8 hPa SSW 16.1 km/h 17.7 km/h 50 % 0.0 mm
09:17 25.7 °C 19.8 °C 1013.8 hPa SSE 4.2 km/h 4.2 km/h 70 % 0.0 mm
09:18 25.7 °C 19.8 °C 1013.8 hPa SSE 4.2 km/h 4.2 km/h 70 % 0.0 mm
09:23 25.9 °C 20.0 °C 1013.8 hPa SE 1.9 km/h   70 % 0.0 mm
09:25 30.8 °C 19.2 °C 1012.8 hPa SW 12.9 km/h 14.5 km/h 50 % 0.0 mm
09:28 26.1 °C 19.9 °C 1013.8 hPa ESE 3.7 km/h 3.7 km/h 69 % 0.0 mm
09:33 26.5 °C 19.9 °C 1013.8 hPa SSW 1.9 km/h   67 % 0.0 mm
09:35 31.3 °C 19.3 °C 1011.7 hPa SW 4.8 km/h 9.7 km/h 49 % 0.0 mm
09:38 26.7 °C 20.1 °C 1013.8 hPa North 3.7 km/h 3.7 km/h 67 % 0.0 mm
09:43 26.7 °C 20.1 °C 1013.8 hPa WSW 3.9 km/h 3.9 km/h 67 % 0.0 mm
09:45 31.7 °C 19.7 °C 1011.7 hPa SW 3.2 km/h 8.0 km/h 49 % 0.0 mm
09:48 27.0 °C 19.8 °C 1013.8 hPa SSW 3.5 km/h   65 % 0.0 mm
09:55 31.9 °C 19.5 °C 1011.7 hPa SW 12.9 km/h 12.9 km/h 48 % 0.0 mm
09:58 27.3 °C 19.9 °C 1013.8 hPa WSW 6.9 km/h 6.9 km/h 64 % 0.0 mm
10:03 27.0 °C 19.6 °C 1013.8 hPa SSW 9.3 km/h 9.3 km/h 64 % 0.0 mm
10:05 32.0 °C 19.6 °C 1011.7 hPa SSW 8.0 km/h 17.7 km/h 48 % 0.0 mm
10:08 27.1 °C 19.4 °C 1013.8 hPa WSW 7.4 km/h 7.4 km/h 63 % 0.0 mm
10:13 27.4 °C 19.7 °C 1013.8 hPa SW 7.4 km/h 7.4 km/h 63 % 0.0 mm
10:15 31.7 °C 19.3 °C 1011.7 hPa SW 3.2 km/h 12.9 km/h 48 % 0.0 mm
10:18 27.8 °C 19.8 °C 1013.8 hPa ENE 3.7 km/h 3.7 km/h 62 % 0.0 mm
10:23 28.2 °C 19.9 °C 1013.8 hPa WSW 9.3 km/h 9.3 km/h 61 % 0.0 mm
10:25 32.0 °C 19.6 °C 1011.7 hPa SW 4.8 km/h 12.9 km/h 48 % 0.0 mm
10:28 28.4 °C 20.2 °C 1013.8 hPa West 5.6 km/h 5.6 km/h 61 % 0.0 mm
10:33 28.2 °C 19.7 °C 1013.8 hPa West 7.4 km/h 7.4 km/h 60 % 0.0 mm
10:35 32.1 °C 19.7 °C 1011.7 hPa SW 4.8 km/h 14.5 km/h 48 % 0.0 mm
10:38 28.5 °C 19.7 °C 1013.8 hPa SW 7.6 km/h 7.6 km/h 59 % 0.0 mm
10:43 28.5 °C 19.4 °C 1013.8 hPa WSW 5.6 km/h 5.6 km/h 58 % 0.0 mm
10:45 31.5 °C 19.2 °C 1011.7 hPa SW 9.7 km/h 12.9 km/h 48 % 0.0 mm
10:48 28.2 °C 19.4 °C 1013.8 hPa West 9.3 km/h 9.3 km/h 59 % 0.0 mm
10:53 28.0 °C 19.2 °C 1013.8 hPa West 3.7 km/h 3.7 km/h 59 % 0.0 mm
10:55 31.6 °C 19.3 °C 1011.7 hPa SW 8.0 km/h 8.0 km/h 48 % 0.0 mm
10:58 28.1 °C 19.1 °C 1013.8 hPa SW 3.7 km/h 3.7 km/h 58 % 0.0 mm
11:03 28.4 °C 19.3 °C 1013.8 hPa SW 3.7 km/h 3.7 km/h 58 % 0.0 mm
11:05 31.5 °C 19.5 °C 1011.7 hPa SW 4.8 km/h 12.9 km/h 49 % 0.0 mm
11:08 29.0 °C 19.3 °C 1013.8 hPa WSW 5.6 km/h 5.6 km/h 56 % 0.0 mm
11:13 29.4 °C 19.7 °C 1013.8 hPa West 7.4 km/h 7.4 km/h 56 % 0.0 mm
11:15 31.2 °C 19.2 °C 1011.7 hPa SW 9.7 km/h 12.9 km/h 49 % 0.0 mm
11:18 29.4 °C 19.1 °C 1013.8 hPa West 9.3 km/h 9.3 km/h 54 % 0.0 mm
11:23 29.8 °C 19.5 °C 1013.8 hPa South 7.4 km/h 7.4 km/h 54 % 0.0 mm
11:25 31.1 °C 18.8 °C 1011.7 hPa SW 11.3 km/h 20.9 km/h 48 % 0.0 mm
11:28 29.4 °C 18.8 °C 1013.8 hPa SW 7.4 km/h 7.4 km/h 53 % 0.0 mm
11:33 29.5 °C 18.9 °C 1013.8 hPa South 2.6 km/h 3.9 km/h 53 % 0.0 mm
11:35 31.2 °C 18.9 °C 1010.7 hPa SW 11.3 km/h 14.5 km/h 48 % 0.0 mm
11:38 29.5 °C 18.9 °C 1013.8 hPa South 2.6 km/h 3.9 km/h 53 % 0.0 mm
11:43 29.5 °C 18.9 °C 1013.8 hPa South 2.6 km/h 3.9 km/h 53 % 0.0 mm
11:45 31.4 °C 18.7 °C 1010.7 hPa SW 12.9 km/h 16.1 km/h 47 % 0.0 mm
11:48 29.5 °C 18.9 °C 1013.8 hPa South 2.6 km/h 3.9 km/h 53 % 0.0 mm
11:53 29.5 °C 18.9 °C 1013.8 hPa South 2.6 km/h 3.9 km/h 53 % 0.0 mm
11:55 32.0 °C 18.9 °C 1010.7 hPa SW 4.8 km/h 8.0 km/h 46 % 0.0 mm
11:58 29.5 °C 18.9 °C 1013.8 hPa South 2.6 km/h 3.9 km/h 53 % 0.0 mm
12:03 29.5 °C 18.9 °C 1013.8 hPa South 2.6 km/h 3.9 km/h 53 % 0.0 mm
12:05 31.4 °C 18.4 °C 1010.7 hPa SW 11.3 km/h 17.7 km/h 46 % 0.0 mm
12:08 29.5 °C 18.9 °C 1013.8 hPa South 2.6 km/h 3.9 km/h 53 % 0.0 mm
12:13 29.5 °C 18.9 °C 1013.8 hPa South 2.6 km/h 3.9 km/h 53 % 0.0 mm
12:15 31.9 °C 18.5 °C 1010.7 hPa SSW 4.8 km/h 9.7 km/h 45 % 0.0 mm
12:18 29.5 °C 18.9 °C 1013.8 hPa South 2.6 km/h 3.9 km/h 53 % 0.0 mm
12:23 29.5 °C 18.9 °C 1013.8 hPa South 2.6 km/h 3.9 km/h 53 % 0.0 mm
12:25 31.6 °C 18.2 °C 1010.0 hPa SSW 4.8 km/h 9.7 km/h 45 % 0.0 mm
12:28 29.5 °C 18.9 °C 1013.8 hPa South 2.6 km/h 3.9 km/h 53 % 0.0 mm
12:33 29.5 °C 18.9 °C 1013.8 hPa South 2.6 km/h 3.9 km/h 53 % 0.0 mm
12:35 31.6 °C 17.8 °C 1010.0 hPa SW 4.8 km/h 16.1 km/h 44 % 0.0 mm
12:38 29.5 °C 18.9 °C 1013.8 hPa South 2.6 km/h 3.9 km/h 53 % 0.0 mm
12:43 29.5 °C 18.9 °C 1013.8 hPa South 2.6 km/h 3.9 km/h 53 % 0.0 mm
12:45 32.2 °C 18.1 °C 1010.0 hPa SW 4.8 km/h 12.9 km/h 43 % 0.0 mm
12:48 29.5 °C 18.9 °C 1013.8 hPa South 2.6 km/h 3.9 km/h 53 % 0.0 mm
12:53 29.5 °C 18.9 °C 1013.8 hPa South 2.6 km/h 3.9 km/h 53 % 0.0 mm
12:55 31.4 °C 16.9 °C 1010.0 hPa SW 9.7 km/h 14.5 km/h 42 % 0.0 mm
12:58 29.5 °C 18.9 °C 1013.8 hPa South 2.6 km/h 3.9 km/h 53 % 0.0 mm
13:03 29.5 °C 18.9 °C 1013.8 hPa South 2.6 km/h 3.9 km/h 53 % 0.0 mm
13:05 31.4 °C 16.2 °C 1010.0 hPa SSW 4.8 km/h 11.3 km/h 40 % 0.0 mm
13:08 29.5 °C 18.9 °C 1013.8 hPa South 2.6 km/h 3.9 km/h 53 % 0.0 mm
13:13 29.5 °C 18.9 °C 1013.8 hPa South 2.6 km/h 3.9 km/h 53 % 0.0 mm
13:15 31.2 °C 15.6 °C 1010.0 hPa SW 8.0 km/h 12.9 km/h 39 % 0.0 mm
13:18 29.5 °C 18.9 °C 1013.8 hPa South 2.6 km/h 3.9 km/h 53 % 0.0 mm
13:23 29.5 °C 18.9 °C 1013.8 hPa South 2.6 km/h 3.9 km/h 53 % 0.0 mm
13:25 31.3 °C 15.7 °C 1010.0 hPa SW 4.8 km/h 17.7 km/h 39 % 0.0 mm
13:28 29.5 °C 18.9 °C 1013.8 hPa South 2.6 km/h 3.9 km/h 53 % 0.0 mm
13:33 29.5 °C 18.9 °C 1013.8 hPa South 2.6 km/h 3.9 km/h 53 % 0.0 mm
13:35 31.2 °C 15.2 °C 1010.0 hPa SSW 9.7 km/h 12.9 km/h 38 % 0.0 mm
13:38 29.5 °C 18.9 °C 1013.8 hPa South 2.6 km/h 3.9 km/h 53 % 0.0 mm
13:43 29.5 °C 18.9 °C 1013.8 hPa South 2.6 km/h 3.9 km/h 53 % 0.0 mm
13:45 31.0 °C 15.4 °C 1010.0 hPa SW 3.2 km/h 12.9 km/h 39 % 0.0 mm
13:53 29.5 °C 18.9 °C 1013.8 hPa South 2.6 km/h 3.9 km/h 53 % 0.0 mm
13:55 30.4 °C 15.3 °C 1010.0 hPa SW 8.0 km/h 8.0 km/h 40 % 0.0 mm
13:58 29.5 °C 18.9 °C 1013.8 hPa South 2.6 km/h 3.9 km/h 53 % 0.0 mm
14:03 29.5 °C 18.9 °C 1013.8 hPa South 2.6 km/h 3.9 km/h 53 % 0.0 mm
14:05 30.5 °C 15.4 °C 1010.0 hPa SW 4.8 km/h 12.9 km/h 40 % 0.0 mm
14:08 29.5 °C 18.9 °C 1013.8 hPa South 2.6 km/h 3.9 km/h 53 % 0.0 mm
14:13 29.5 °C 18.9 °C 1013.8 hPa South 2.6 km/h 3.9 km/h 53 % 0.0 mm
14:15 29.8 °C 15.5 °C 1010.0 hPa SW 4.8 km/h 11.3 km/h 42 % 0.0 mm
14:18 29.5 °C 18.9 °C 1013.8 hPa South 2.6 km/h 3.9 km/h 53 % 0.0 mm
14:23 29.5 °C 18.9 °C 1013.8 hPa South 2.6 km/h 3.9 km/h 53 % 0.0 mm
14:25 29.5 °C 15.2 °C 1010.0 hPa SW 4.8 km/h 11.3 km/h 42 % 0.0 mm
14:28 29.5 °C 18.9 °C 1013.8 hPa South 2.6 km/h 3.9 km/h 53 % 0.0 mm
14:33 29.5 °C 18.9 °C 1013.8 hPa South 2.6 km/h 3.9 km/h 53 % 0.0 mm
14:35 28.9 °C 15.4 °C 1010.0 hPa SW 8.0 km/h 8.0 km/h 44 % 0.0 mm
14:38 29.5 °C 18.9 °C 1013.8 hPa South 2.6 km/h 3.9 km/h 53 % 0.0 mm
14:43 29.5 °C 18.9 °C 1013.8 hPa South 2.6 km/h 3.9 km/h 53 % 0.0 mm
14:45 28.5 °C 15.8 °C 1010.0 hPa SSW 4.8 km/h 4.8 km/h 46 % 0.0 mm
14:48 29.5 °C 18.9 °C 1013.8 hPa South 2.6 km/h 3.9 km/h 53 % 0.0 mm
14:53 29.5 °C 18.9 °C 1013.8 hPa South 2.6 km/h 3.9 km/h 53 % 0.0 mm
14:55 28.5 °C 16.1 °C 1009.0 hPa SSW 3.2 km/h 4.8 km/h 47 % 0.0 mm
14:58 29.5 °C 18.9 °C 1013.8 hPa South 2.6 km/h 3.9 km/h 53 % 0.0 mm
15:05 28.1 °C 16.1 °C 1010.0 hPa SSW 4.8 km/h 9.7 km/h 48 % 0.0 mm
15:08 29.5 °C 18.9 °C 1013.8 hPa South 2.6 km/h 3.9 km/h 53 % 0.0 mm
15:13 29.5 °C 18.9 °C 1013.8 hPa South 2.6 km/h 3.9 km/h 53 % 0.0 mm
15:15 27.8 °C 16.4 °C 1010.0 hPa SSW 3.2 km/h 8.0 km/h 50 % 0.0 mm
15:18 29.5 °C 18.9 °C 1013.8 hPa South 2.6 km/h 3.9 km/h 53 % 0.0 mm
15:23 29.5 °C 18.9 °C 1013.8 hPa South 2.6 km/h 3.9 km/h 53 % 0.0 mm
15:25 27.7 °C 16.7 °C 1010.0 hPa SSW 1.6 km/h 9.7 km/h 51 % 0.0 mm
15:28 29.5 °C 18.9 °C 1013.8 hPa South 2.6 km/h 3.9 km/h 53 % 0.0 mm
15:34 29.5 °C 18.9 °C 1013.8 hPa South 2.6 km/h 3.9 km/h 53 % 0.0 mm
15:35 27.2 °C 16.5 °C 1010.0 hPa SSW 3.2 km/h 3.2 km/h 52 % 0.0 mm
15:38 29.5 °C 18.9 °C 1013.8 hPa South 2.6 km/h 3.9 km/h 53 % 0.0 mm
15:44 29.5 °C 18.9 °C 1013.8 hPa South 2.6 km/h 3.9 km/h 53 % 0.0 mm
15:45 27.0 °C 16.6 °C 1010.0 hPa SW 4.8 km/h 6.4 km/h 53 % 0.0 mm
15:49 29.5 °C 18.9 °C 1013.8 hPa South 2.6 km/h 3.9 km/h 53 % 0.0 mm
15:54 29.5 °C 18.9 °C 1013.8 hPa South 2.6 km/h 3.9 km/h 53 % 0.0 mm
15:55 26.8 °C 17.0 °C 1009.0 hPa SW 1.6 km/h 6.4 km/h 55 % 0.0 mm
15:59 29.5 °C 18.9 °C 1013.8 hPa South 2.6 km/h 3.9 km/h 53 % 0.0 mm
16:04 29.5 °C 18.9 °C 1013.8 hPa South 2.6 km/h 3.9 km/h 53 % 0.0 mm
16:05 26.6 °C 17.4 °C 1010.0 hPa SW 4.8 km/h 4.8 km/h 57 % 0.0 mm
16:09 29.5 °C 18.9 °C 1013.8 hPa South 2.6 km/h 3.9 km/h 53 % 0.0 mm
16:14 29.5 °C 18.9 °C 1013.8 hPa South 2.6 km/h 3.9 km/h 53 % 0.0 mm
16:15 26.4 °C 17.7 °C 1010.0 hPa SW 1.6 km/h 4.8 km/h 59 % 0.0 mm
16:19 29.5 °C 18.9 °C 1013.8 hPa South 2.6 km/h 3.9 km/h 53 % 0.0 mm
16:24 29.5 °C 18.9 °C 1013.8 hPa South 2.6 km/h 3.9 km/h 53 % 0.0 mm
16:29 29.5 °C 18.9 °C 1013.8 hPa South 2.6 km/h 3.9 km/h 53 % 0.0 mm
16:34 29.5 °C 18.9 °C 1013.8 hPa South 2.6 km/h 3.9 km/h 53 % 0.0 mm
16:35 25.9 °C 17.8 °C 1010.7 hPa SW 3.2 km/h 4.8 km/h 61 % 0.0 mm
16:39 29.5 °C 18.9 °C 1013.8 hPa South 2.6 km/h 3.9 km/h 53 % 0.0 mm
16:44 29.5 °C 18.9 °C 1013.8 hPa South 2.6 km/h 3.9 km/h 53 % 0.0 mm
16:45 25.8 °C 17.9 °C 1010.7 hPa SW 3.2 km/h 4.8 km/h 62 % 0.0 mm
16:49 29.5 °C 18.9 °C 1013.8 hPa South 2.6 km/h 3.9 km/h 53 % 0.0 mm
16:54 29.5 °C 18.9 °C 1013.8 hPa South 2.6 km/h 3.9 km/h 53 % 0.0 mm
16:55 25.6 °C 18.3 °C 1010.0 hPa SW 1.6 km/h 6.4 km/h 64 % 0.0 mm
16:59 29.5 °C 18.9 °C 1013.8 hPa South 2.6 km/h 3.9 km/h 53 % 0.0 mm
17:04 29.5 °C 18.9 °C 1013.8 hPa South 2.6 km/h 3.9 km/h 53 % 0.0 mm
17:05 25.5 °C 18.2 °C 1010.0 hPa SW 3.2 km/h 4.8 km/h 64 % 0.0 mm
17:09 29.5 °C 18.9 °C 1013.8 hPa South 2.6 km/h 3.9 km/h 53 % 0.0 mm
17:14 29.5 °C 18.9 °C 1013.8 hPa South 2.6 km/h 3.9 km/h 53 % 0.0 mm
17:15 25.4 °C 18.3 °C 1010.0 hPa Calm   1.6 km/h 65 % 0.0 mm
17:19 29.5 °C 18.9 °C 1013.8 hPa South 2.6 km/h 3.9 km/h 53 % 0.0 mm
17:24 29.5 °C 18.9 °C 1013.8 hPa South 2.6 km/h 3.9 km/h 53 % 0.0 mm
17:25 25.3 °C 18.5 °C 1010.0 hPa Calm   1.6 km/h 66 % 0.0 mm
17:29 29.5 °C 18.9 °C 1013.8 hPa South 2.6 km/h 3.9 km/h 53 % 0.0 mm
17:34 29.5 °C 18.9 °C 1013.8 hPa South 2.6 km/h 3.9 km/h 53 % 0.0 mm
17:35 25.3 °C 18.5 °C 1010.0 hPa Calm   1.6 km/h 66 % 0.0 mm
17:39 29.5 °C 18.9 °C 1013.8 hPa South 2.6 km/h 3.9 km/h 53 % 0.0 mm
17:44 29.5 °C 18.9 °C 1013.8 hPa South 2.6 km/h 3.9 km/h 53 % 0.0 mm
17:45 25.3 °C 18.5 °C 1010.0 hPa SW 1.6 km/h 3.2 km/h 66 % 0.0 mm
17:49 29.5 °C 18.9 °C 1013.8 hPa South 2.6 km/h 3.9 km/h 53 % 0.0 mm
17:54 29.5 °C 18.9 °C 1013.8 hPa South 2.6 km/h 3.9 km/h 53 % 0.0 mm
17:55 25.2 °C 18.6 °C 1010.0 hPa Calm   3.2 km/h 67 % 0.0 mm
17:59 29.5 °C 18.9 °C 1013.8 hPa South 2.6 km/h 3.9 km/h 53 % 0.0 mm
18:04 29.5 °C 18.9 °C 1013.8 hPa South 2.6 km/h 3.9 km/h 53 % 0.0 mm
18:05 25.1 °C 18.8 °C 1010.0 hPa Calm   3.2 km/h 68 % 0.0 mm
18:09 29.5 °C 18.9 °C 1013.8 hPa South 2.6 km/h 3.9 km/h 53 % 0.0 mm
18:14 29.5 °C 18.9 °C 1013.8 hPa South 2.6 km/h 3.9 km/h 53 % 0.0 mm
18:15 25.1 °C 18.8 °C 1010.0 hPa WSW 1.6 km/h 3.2 km/h 68 % 0.0 mm
18:19 29.5 °C 18.9 °C 1013.8 hPa South 2.6 km/h 3.9 km/h 53 % 0.0 mm
18:24 29.5 °C 18.9 °C 1013.8 hPa South 2.6 km/h 3.9 km/h 53 % 0.0 mm
18:25 25.1 °C 19.2 °C 1010.0 hPa WSW 1.6 km/h 1.6 km/h 70 % 0.0 mm
18:29 29.5 °C 18.9 °C 1013.8 hPa South 2.6 km/h 3.9 km/h 53 % 0.0 mm
18:34 29.5 °C 18.9 °C 1013.8 hPa South 2.6 km/h 3.9 km/h 53 % 0.0 mm
18:39 29.5 °C 18.9 °C 1013.8 hPa South 2.6 km/h 3.9 km/h 53 % 0.0 mm
18:44 29.5 °C 18.9 °C 1013.8 hPa South 2.6 km/h 3.9 km/h 53 % 0.0 mm
18:49 29.5 °C 18.9 °C 1013.8 hPa South 2.6 km/h 3.9 km/h 53 % 0.0 mm
18:54 29.5 °C 18.9 °C 1013.8 hPa South 2.6 km/h 3.9 km/h 53 % 0.0 mm
18:59 29.5 °C 18.9 °C 1013.8 hPa South 2.6 km/h 3.9 km/h 53 % 0.0 mm
19:04 29.5 °C 18.9 °C 1013.8 hPa South 2.6 km/h 3.9 km/h 53 % 0.0 mm
19:09 29.5 °C 18.9 °C 1013.8 hPa South 2.6 km/h 3.9 km/h 53 % 0.0 mm
19:14 29.5 °C 18.9 °C 1013.8 hPa South 2.6 km/h 3.9 km/h 53 % 0.0 mm
19:19 29.5 °C 18.9 °C 1013.8 hPa South 2.6 km/h 3.9 km/h 53 % 0.0 mm
19:24 29.5 °C 18.9 °C 1013.8 hPa South 2.6 km/h 3.9 km/h 53 % 0.0 mm
19:25 24.9 °C 19.3 °C 1010.0 hPa NNE 1.6 km/h 3.2 km/h 71 % 0.0 mm
19:29 29.5 °C 18.9 °C 1013.8 hPa South 2.6 km/h 3.9 km/h 53 % 0.0 mm
19:34 29.5 °C 18.9 °C 1013.8 hPa South 2.6 km/h 3.9 km/h 53 % 0.0 mm
19:35 24.9 °C 19.3 °C 1010.0 hPa SSE 1.6 km/h 3.2 km/h 71 % 0.0 mm
19:39 29.5 °C 18.9 °C 1013.8 hPa South 2.6 km/h 3.9 km/h 53 % 0.0 mm
19:44 29.5 °C 18.9 °C 1013.8 hPa South 2.6 km/h 3.9 km/h 53 % 0.0 mm
19:45 24.9 °C 19.5 °C 1010.0 hPa ENE 3.2 km/h 3.2 km/h 72 % 0.0 mm
19:49 29.5 °C 18.9 °C 1013.8 hPa South 2.6 km/h 3.9 km/h 53 % 0.0 mm
19:54 29.5 °C 18.9 °C 1013.8 hPa South 2.6 km/h 3.9 km/h 53 % 0.0 mm
19:55 24.9 °C 19.5 °C 1009.0 hPa NE 4.8 km/h 6.4 km/h 72 % 0.0 mm
19:59 29.5 °C 18.9 °C 1013.8 hPa South 2.6 km/h 3.9 km/h 53 % 0.0 mm
20:04 29.5 °C 18.9 °C 1013.8 hPa South 2.6 km/h 3.9 km/h 53 % 0.0 mm
20:05 24.9 °C 19.7 °C 1009.0 hPa NNE 4.8 km/h 6.4 km/h 73 % 0.0 mm
20:09 29.5 °C 18.9 °C 1013.8 hPa South 2.6 km/h 3.9 km/h 53 % 0.0 mm
20:14 29.5 °C 18.9 °C 1013.8 hPa South 2.6 km/h 3.9 km/h 53 % 0.0 mm
20:15 24.9 °C 19.7 °C 1009.0 hPa NE 3.2 km/h 4.8 km/h 73 % 0.0 mm
20:19 29.5 °C 18.9 °C 1013.8 hPa South 2.6 km/h 3.9 km/h 53 % 0.0 mm
20:24 29.5 °C 18.9 °C 1013.8 hPa South 2.6 km/h 3.9 km/h 53 % 0.0 mm
20:25 24.9 °C 19.9 °C 1008.0 hPa NE 3.2 km/h 6.4 km/h 74 % 0.0 mm
20:29 29.5 °C 18.9 °C 1013.8 hPa South 2.6 km/h 3.9 km/h 53 % 0.0 mm
20:34 29.5 °C 18.9 °C 1013.8 hPa South 2.6 km/h 3.9 km/h 53 % 0.0 mm
20:35 24.9 °C 19.9 °C 1008.0 hPa ENE 3.2 km/h 4.8 km/h 74 % 0.0 mm
20:39 29.5 °C 18.9 °C 1013.8 hPa South 2.6 km/h 3.9 km/h 53 % 0.0 mm
20:44 29.5 °C 18.9 °C 1013.8 hPa South 2.6 km/h 3.9 km/h 53 % 0.0 mm
20:45 24.9 °C 20.2 °C 1008.0 hPa ENE 3.2 km/h 4.8 km/h 75 % 0.0 mm
20:49 29.5 °C 18.9 °C 1013.8 hPa South 2.6 km/h 3.9 km/h 53 % 0.0 mm
20:50 29.5 °C 18.9 °C 1013.8 hPa South 2.6 km/h 3.9 km/h 53 % 0.0 mm
20:55 29.5 °C 18.9 °C 1013.8 hPa South 2.6 km/h 3.9 km/h 53 % 0.0 mm
21:00 29.5 °C 18.9 °C 1013.8 hPa South 2.6 km/h 3.9 km/h 53 % 0.0 mm
21:05 29.5 °C 18.9 °C 1013.8 hPa South 2.6 km/h 3.9 km/h 53 % 0.0 mm
21:10 29.5 °C 18.9 °C 1013.8 hPa South 2.6 km/h 3.9 km/h 53 % 0.0 mm
21:15 29.5 °C 18.9 °C 1013.8 hPa South 2.6 km/h 3.9 km/h 53 % 0.0 mm
21:20 29.5 °C 18.9 °C 1013.8 hPa South 2.6 km/h 3.9 km/h 53 % 0.0 mm
21:25 29.5 °C 18.9 °C 1013.8 hPa South 2.6 km/h 3.9 km/h 53 % 0.0 mm
21:30 29.5 °C 18.9 °C 1013.8 hPa South 2.6 km/h 3.9 km/h 53 % 0.0 mm
21:35 29.5 °C 18.9 °C 1013.8 hPa South 2.6 km/h 3.9 km/h 53 % 0.0 mm
21:40 29.5 °C 18.9 °C 1013.8 hPa South 2.6 km/h 3.9 km/h 53 % 0.0 mm
21:45 29.5 °C 18.9 °C 1013.8 hPa South 2.6 km/h 3.9 km/h 53 % 0.0 mm
21:50 29.5 °C 18.9 °C 1013.8 hPa South 2.6 km/h 3.9 km/h 53 % 0.0 mm
21:55 29.5 °C 18.9 °C 1013.8 hPa South 2.6 km/h 3.9 km/h 53 % 0.0 mm
22:00 29.5 °C 18.9 °C 1013.8 hPa South 2.6 km/h 3.9 km/h 53 % 0.0 mm
22:05 29.5 °C 18.9 °C 1013.8 hPa South 2.6 km/h 3.9 km/h 53 % 0.0 mm
22:10 29.5 °C 18.9 °C 1013.8 hPa South 2.6 km/h 3.9 km/h 53 % 0.0 mm
22:15 29.5 °C 18.9 °C 1013.8 hPa South 2.6 km/h 3.9 km/h 53 % 0.0 mm
22:20 29.5 °C 18.9 °C 1013.8 hPa South 2.6 km/h 3.9 km/h 53 % 0.0 mm
22:25 29.5 °C 18.9 °C 1013.8 hPa South 2.6 km/h 3.9 km/h 53 % 0.0 mm
22:30 29.5 °C 18.9 °C 1013.8 hPa South 2.6 km/h 3.9 km/h 53 % 0.0 mm
22:35 29.5 °C 18.9 °C 1013.8 hPa South 2.6 km/h 3.9 km/h 53 % 0.0 mm
22:40 29.5 °C 18.9 °C 1013.8 hPa South 2.6 km/h 3.9 km/h 53 % 0.0 mm
22:45 29.5 °C 18.9 °C 1013.8 hPa South 2.6 km/h 3.9 km/h 53 % 0.0 mm
22:50 29.5 °C 18.9 °C 1013.8 hPa South 2.6 km/h 3.9 km/h 53 % 0.0 mm
22:55 29.5 °C 18.9 °C 1013.8 hPa South 2.6 km/h 3.9 km/h 53 % 0.0 mm
23:00 29.5 °C 18.9 °C 1013.8 hPa South 2.6 km/h 3.9 km/h 53 % 0.0 mm
23:05 29.5 °C 18.9 °C 1013.8 hPa South 2.6 km/h 3.9 km/h 53 % 0.0 mm
23:10 29.5 °C 18.9 °C 1013.8 hPa South 2.6 km/h 3.9 km/h 53 % 0.0 mm
23:15 29.5 °C 18.9 °C 1013.8 hPa South 2.6 km/h 3.9 km/h 53 % 0.0 mm
23:20 29.5 °C 18.9 °C 1013.8 hPa South 2.6 km/h 3.9 km/h 53 % 0.0 mm
23:25 29.5 °C 18.9 °C 1013.8 hPa South 2.6 km/h 3.9 km/h 53 % 0.0 mm
23:33 25.1 °C 19.2 °C 1010.0 hPa ENE 1.9 km/h 1.9 km/h 70 % 0.0 mm
23:35 24.9 °C 21.0 °C 1007.0 hPa NE 3.2 km/h 4.8 km/h 79 % 0.0 mm
23:38 25.1 °C 19.2 °C 1010.0 hPa ENE 2.6 km/h 2.6 km/h 70 % 0.0 mm
23:43 25.0 °C 19.2 °C 1010.0 hPa SSW 1.9 km/h   70 % 0.0 mm
23:45 24.9 °C 20.8 °C 1007.0 hPa NE 8.0 km/h 11.3 km/h 78 % 0.0 mm
23:48 25.0 °C 19.2 °C 1010.0 hPa ENE 2.6 km/h 2.6 km/h 70 % 0.0 mm
23:53 25.1 °C 19.2 °C 1010.0 hPa NNE 3.9 km/h 3.9 km/h 70 % 0.0 mm
23:55 24.9 °C 21.0 °C 1007.0 hPa NNE 3.2 km/h 8.0 km/h 79 % 0.0 mm
23:58 25.0 °C 19.2 °C 1010.0 hPa NE 5.6 km/h 5.6 km/h 70 % 0.0 mm
Meteo Sesrovires
Elogis d' Weather Underground - 4 mb

Guio original per  Jim McMurry - jmcmurry@mwt.net Adaptat per a la plantilla per  Wim van der Kuil - Leuven-Template.eu

Trobareu la nostra informacio del temps tambe a:

Weather Underground

AWEKAS